Lost Hills, CA

12:36 AM PST on November 24, 2014 (GMT -0800)
NonFedAWOS PARAMOUNT CA US SUPERAWOS | Change Station
CLOSE
Current Station
Personal Weather Station
Location: Lost Hills, CA
Elevation: 617 ft
Nearby Weather Stations

Elev 617 ft 35.67 °N, 119.90 °W | Updated 41 minutes ago

Clear
Clear
45 °F
Feels Like 45 °F
N
0
Wind Variable Wind from North
Gusts 0.0 mph

Today
High -- | Low -- °F
--% Chance of Precip.
Yesterday
High -- | Low -- °F
Precip. -- in
6:43 AM 4:47 PM
Waxing Crescent, 4% visible
Pressure 30.32 in
Visibility 8.0 miles
Clouds Clear
Windchill 45 °F
Dew Point 37 °F
Humidity 76%
Rainfall -999.00 in
Snow Depth Not available.
UV 0 out of 12
Pollen 2.90 out of 12
Air Quality Not available.
Flu Activity Not available.
METAR KBFL 240754Z AUTO 00000KT 8SM CLR 10/06 A3032 RMK AO2 SLP265 T01000061 401670083

More Conditions Fewer Conditions

Pressure 30.32 in
Visibility 8.0 miles
Clouds Clear
Windchill 45 °F
Dew Point 37 °F
Humidity 76%
Rainfall -999.00 in
Snow Depth Not available.
UV 0 out of 12
Pollen 2.90 out of 12
Air Quality Not available.
Flu Activity Not available.
METAR KBFL 240754Z AUTO 00000KT 8SM CLR 10/06 A3032 RMK AO2 SLP265 T01000061 401670083

More Conditions Fewer Conditions

10-Day Weather Forecast

Almanac

Astronomy

Nov. 24, 2014 Rise Set
Actual Time
Civil Twilight
Nautical Twilight
Astronomical Twilight
Moon
Length of Visible Light
Length of Day
Tomorrow will be .
, % of the Moon is Illuminated

Today's Extremes

State Highs State Lows

Community

WunderPhotos

Upload Photos

1,773,295 photos uploaded!

WunderBlogs® & News

Nearby

Air Quality

  Air Quality AQ Index Pollutant
Not available.

Snow Depth

Station Depth Elevation

Earthquake Activity

City Distance Mag. Time & Date
Minimum magnitude displayed is 2.5.

Coastal Water Temperatures

Place Temperature

Nearby Weather Stations